LFGJ 221130Z AUTO 26007KT 220V290 CAVOK 10/02 Q1032 NOSIG

ElémentsDécodage
LFGJ Station météo située sur l'aérodrome de DOLE Tavaux
221130Z émis le 22 du mois à 11h30 UTC
AUTO Bulletin édité par un automate
26007KT vent du 260°, 07 noeuds
220V290 vent de direction variable entre 220° et 290°
CAVOK Ceiling And Visibility OK
- Visibilité de 10 Km ou plus
- Pas de nuage au-dessous de 1500m ou au-dessous de l'altitude minimale du secteur la plus élevée (si>1500m) et absence de CB
- pas de temps présent significatif
10/02 température 10°C, point de rosée 02°C
 soit une humidité relative de 58%
Q1032 la pression au niveau de la mer (QNH) est de 1032 hPa
NOSIG Pas de changement significatif prévu au cours des deux heures suivant l'heure de l'observation